Adams Field
KLIT : now visible

Airfield :











YOU CAN JOIN US ON...

 
LOGIN :

Register | Disclaimer

   EN    FR    IT 

 









Legend :    VFR   Marginal VFR   IFR   Intensive IFR   Very Intensive IFR
Visi :
Ceiling :
>= 8 km
>= 3000ft
5 to 8 km
1000 to 3000 ft
1500m to 5 km
500 to 1000 ft
800 to 1500m
200 to 500 ft
< 800m
< 200 ft
Symbols :   Thunderstorms  Fog  Heavy snow  Heavy precipitations  Wind > 20 kt







- Airport Elevation : 262 ft
- IATA code : LIT


KLIT - Adams Field

CURRENT METAR :
  • 260253Z 11003KT 10SM BKN035 BKN100 OVC250 24/23 A2985 RMK AO2 SLP107 T02440233 52015 $

EXPIRED METARs :
  • 260153Z 08005KT 10SM BKN035 BKN100 BKN250 24/23 A2984 RMK AO2 SLP103 T02440233 $
  • 260053Z 03003KT 10SM FEW045 SCT100 BKN250 24/23 A2982 RMK AO2 SLP097 T02440233 $

TAF KLIT
Valid from the 26 at 00:00 until the 27 at 00:00 UTC


252329Z 2600/2624 14005KT P6SM VCSH SCT050 OVC080
FM260600 16003KT 6SM BR SCT007 OVC015
TEMPO 2606/2610 4SM BR OVC007
FM261000 00000KT 3SM BR OVC005
FM261500 19006KT P6SM BKN015 OVC030
No reported NOTAMs for that airfield.



MET'MAP, your aeronautical weather chart ! - Copyright ORBIFLY December 2007 - Disclaimer

ORBIFLY MET'MAP TEAM :

Programming & Development : Alexandra Zaïnal
Concept & Development : Baudouin d'Aumeries
Co-Development & Prog : Marc-Olivier Méhu
Technical & hardware support : Manuel Goepfert

Contact : metmap@orbifly.com




SOURCES & CREDITS :

   NOAA       Earth
Advisory